Pronóstico
Mapa Interactivo
Aviación
Climatología
Hidrometeorología
Agrometeorología
Estaciones Automáticas
Transparencia
OMM WMO
Portada
Institución
Noticias
Imágenes
Tsunami
Historial
Boletines y Alertas
Contactos
Buscar Contenidos
Informe del Tiempo

SEQUÍA SE MANTIENE EN LAS REGIONES SUR, SUROESTE Y NOROESTE


                      VUELOS DE BAJO NIVEL DESDE SUPERFICIE HASTA 24,000 PIES

                      VALIDO DESDE 211200Z ...................................HASTA 220000Z  

                          SALIDA  Y  PUESTA  DEL  SOL  07:03 / 18:42

SANTO DOMINGO FIR...PORT-AU-PRINCE . . . SCT020 SCT-BKN070 TOP 120. OVR HISPANIOLA TIL 13Z INVOF WINDWARD SLOPES OCNL BKN015. OTLK...VFR.

 

5,000 FT.

10,000 FT.

18,000 FT.

24,000 FT.

MDSD

1230KT+17ºC

1425KT+11ºC

1220KT-07ºC

1010KT-20ºC

MTPP

     1430KT+17ºC

1525KT+11ºC

1420KT-07ºC

1110KT-20ºC

TJSJ

0930KT+14ºC

1130KT+11ºC

0915KT-07ºC

0810KT-20ºC

 

 

 

 

 

 

TAF

TAF MDPP 211000Z 2112/2212 00000KT 9999 FEW018 PROB30 2112/2118 8000 -SH BKN016 BECMG 2114/2116 09010KT=

TAF MDST 211000Z 2112/2212 13005KT 9999 SCT016 PROB30 2112/2118 7000 -RA SCT014 BKN070=

TAF MDPC 211000Z 2112/2212 07010KT 9999 SCT018=

TAF MDBH 211000Z 2112/2212 13012KT 9999 FEW018 SCT080=

TAF MDJB 211000Z 2112/2212 00000KT 9999 FEW018 BECMG 2115/2117 04008KT=

TAF MDSD 211000Z 2112/2212 04005KT 9999 FEW018=

TAF MDLR 211000Z 2112/2212 00000KT 9999 FEW018 BECMG 2116/2118 08007KT=

TAF MDCY 211000Z 2112/2212 00000KT 9999 SCT018 BECMG 2116/2118 09010KT=

KMIA 210859Z 2109/2212 12012KT P6SM VCSH SCT020 SCT025 BKN035 FM211400 13012KT P6SM SCT030 FM212300 12009KT P6SM FEW025 FM220300 11005KT P6SM FEW025

KJFK 210831Z 2109/2212 36006KT 3SM BR OVC004 TEMPO 2109/2111 -DZ BR FM211200 27008KT 6SM BR BKN004 OVC007 FM211400 27010KT P6SM BKN015 BKN025 FM211500 28012KT P6SM SCT025 SCT250 FM211700 29014G20KT P6SM SCT250 FM220000 28010KT P6SM SCT250 FM220600 31010KT P6SM SCT250

TJSJ 210545Z 2106/2206 08008KT P6SM SHRA SCT030 SCT050 FM211400 09016G25KT P6SM SCT030 FM211800 08020G30KT P6SM SCT025 SCT060 FM220200 08008KT P6SM VCSH SCT030 SCT050

TAF MKJP 210515Z 2106/2206 11014KT 9999 FEW022 BECMG 2113/2115 14026KT BECMG 2202/2204 11014KT

MUHA 210500Z 2106/2206 VRB03KT 7000 FEW030 TEMPO 2108/2112 1000 PRFG NSC BECMG 2114/2116 16010KT 9000 FEW030 TEMPO 2119/2122 BKN030

TAF MUGM 2107/2207 33010KT 9999 FEW035 QNH2997INS FM211600 09012KT 9999 FEW035 FEW120 SCT280 QNH3008INS FM211800 12018KT 9999 FEW035 FEW120 SCT280 QNH3003INS BECMG 2206/2208 02005KT 9999 FEW035 QNH3001INS T20/2111Z T29/2120Z FN20209

TAF TNCC 210945Z 2112/2212 10014KT 9999 FEW020

TAF TFFR 210500Z 2106/2206 09004KT 9999 SCT030 PROB40 TEMPO 2106/2121 10015G25KT PROB30 TEMPO 2106/2118 10018G30KT 3000 SHRA SCT018TCU

 

ELABORADO POR: ELIZABETH FELIZ B.

21 DE FEBRERO DE 2019.-